Time;durP1;ratioP1;P1;durP2;ratioP2;P2;SDS_P1;SDS_P2;PMS_P1;PMS_P2;Temp;Humidity;BMP_temperature;BMP_pressure;BME280_temperature;BME280_humidity;BME280_pressure;Samples;Min_cycle;Max_cycle;Signal;HPM_P1;HPM_P2
2022/11/11 00:01:14;;;;;;;12.48;4.68;;;;;;;18.28;100.00;98555.41;6075905;23;20097;-95
2022/11/11 00:03:41;;;;;;;14.02;4.53;;;;;;;18.21;100.00;98564.53;6069337;23;20034;-96
2022/11/11 00:06:10;;;;;;;12.25;4.38;;;;;;;18.33;100.00;98542.00;6068968;23;20026;-96
2022/11/11 00:08:36;;;;;;;12.20;4.15;;;;;;;17.89;100.00;98564.09;6071676;23;20054;-96
2022/11/11 00:11:02;;;;;;;12.13;4.13;;;;;;;18.55;100.00;98557.75;6070698;23;20011;-96
2022/11/11 00:13:29;;;;;;;10.40;3.85;;;;;;;18.31;100.00;98555.28;6069174;23;20018;-95
2022/11/11 00:15:55;;;;;;;12.77;4.70;;;;;;;18.20;100.00;98560.16;6069112;23;20043;-96
2022/11/11 00:26:41;;;;;;;11.75;4.38;;;;;;;18.28;100.00;98557.22;6099528;23;20153;-96
2022/11/11 00:29:09;;;;;;;10.13;4.30;;;;;;;18.34;100.00;98552.50;6109882;23;19998;-96
2022/11/11 00:31:34;;;;;;;13.93;4.22;;;;;;;18.20;100.00;98552.25;6071627;23;20015;-96
2022/11/11 00:34:00;;;;;;;12.15;4.05;;;;;;;18.04;100.00;98573.19;6096412;23;20093;-96
2022/11/11 00:36:26;;;;;;;12.10;3.83;;;;;;;18.77;100.00;98560.28;6072023;23;20037;-96
2022/11/11 00:38:54;;;;;;;13.05;3.70;;;;;;;18.03;100.00;98553.00;6097733;23;20345;-96
2022/11/11 00:41:21;;;;;;;12.75;3.70;;;;;;;18.12;100.00;98544.69;6072489;23;20014;-96
2022/11/11 00:43:47;;;;;;;16.02;4.75;;;;;;;18.20;100.00;98550.47;6071558;23;20007;-96
2022/11/11 00:51:42;;;;;;;12.35;3.70;;;;;;;18.45;100.00;98546.75;6098403;23;20038;-94
2022/11/11 00:54:08;;;;;;;9.77;3.50;;;;;;;18.22;100.00;98543.34;6098343;23;20002;-96
2022/11/11 00:56:37;;;;;;;8.80;3.33;;;;;;;18.49;100.00;98543.03;6096969;23;20007;-96
2022/11/11 00:59:08;;;;;;;9.10;3.10;;;;;;;17.89;100.00;98545.63;6073280;23;20049;-96
2022/11/11 01:01:35;;;;;;;13.77;3.67;;;;;;;18.00;100.00;98551.34;6097315;23;20105;-96
2022/11/11 01:04:01;;;;;;;11.30;3.58;;;;;;;17.99;100.00;98539.06;6097477;23;20002;-95
2022/11/11 01:06:27;;;;;;;12.98;3.80;;;;;;;17.90;100.00;98542.91;6097230;23;20015;-96
2022/11/11 01:08:57;;;;;;;12.30;3.50;;;;;;;17.88;100.00;98547.41;6074920;23;20010;-96
2022/11/11 01:11:23;;;;;;;13.00;3.80;;;;;;;17.61;100.00;98538.88;6074594;23;20030;-96
2022/11/11 01:13:51;;;;;;;12.90;4.18;;;;;;;18.08;100.00;98535.19;6097630;23;20065;-96
2022/11/11 01:16:23;;;;;;;14.02;3.85;;;;;;;18.31;100.00;98542.06;6072995;23;20694;-96
2022/11/11 01:18:50;;;;;;;13.15;4.13;;;;;;;17.88;100.00;98536.00;6096995;23;20838;-96
2022/11/11 01:21:24;;;;;;;10.80;3.47;;;;;;;18.07;100.00;98541.38;6075115;23;20089;-96
2022/11/11 01:23:51;;;;;;;9.82;3.85;;;;;;;17.77;100.00;98538.22;6099190;23;20018;-96
2022/11/11 01:26:19;;;;;;;10.68;3.30;;;;;;;17.80;100.00;98541.59;6098719;23;20022;-96
2022/11/11 01:28:47;;;;;;;10.48;3.35;;;;;;;17.55;100.00;98516.25;6076692;23;20015;-96
2022/11/11 01:31:15;;;;;;;11.02;3.50;;;;;;;18.05;100.00;98530.91;6098714;23;20034;-96
2022/11/11 01:33:40;;;;;;;9.40;3.53;;;;;;;17.94;100.00;98543.69;6098177;23;20380;-96
2022/11/11 01:36:26;;;;;;;14.30;3.97;;;;;;;17.87;100.00;98497.34;6096723;23;20068;-96
2022/11/11 01:38:54;;;;;;;11.10;3.97;;;;;;;17.76;100.00;98505.72;6096637;23;20018;-96
2022/11/11 01:41:31;;;;;;;9.07;3.42;;;;;;;17.99;100.00;98515.31;6096655;23;20026;-96
2022/11/11 01:43:58;;;;;;;9.85;3.10;;;;;;;17.74;100.00;98513.72;6098220;23;20014;-96
2022/11/11 01:46:48;;;;;;;10.52;3.17;;;;;;;17.94;100.00;98524.34;6097883;23;20002;-96
2022/11/11 01:49:23;;;;;;;9.07;3.10;;;;;;;18.16;100.00;98537.47;6099005;23;20014;-96
2022/11/11 01:52:11;;;;;;;9.45;3.30;;;;;;;18.12;100.00;98514.78;6098711;23;20003;-96
2022/11/11 01:54:58;;;;;;;10.75;3.25;;;;;;;18.23;100.00;98534.50;6097525;23;20018;-96
2022/11/11 01:57:39;;;;;;;10.23;3.22;;;;;;;18.52;100.00;98518.28;6097238;23;20022;-96
2022/11/11 02:00:13;;;;;;;12.40;3.05;;;;;;;18.75;100.00;98539.22;6097650;23;20013;-96
2022/11/11 02:02:52;;;;;;;8.10;2.80;;;;;;;18.17;100.00;98524.22;6097286;23;20010;-95
2022/11/11 02:05:44;;;;;;;12.18;2.80;;;;;;;18.81;100.00;98514.31;6072770;23;20066;-95
2022/11/11 02:08:32;;;;;;;11.60;2.95;;;;;;;18.64;100.00;98504.53;6071524;23;20089;-96
2022/11/11 02:14:34;;;;;;;10.48;2.67;;;;;;;18.48;100.00;98529.91;6072339;23;20028;-95
2022/11/11 02:16:50;;;;;;;10.18;2.10;;;;;;;18.37;100.00;98514.53;6098539;23;20076;-96
2022/11/11 02:19:21;;;;;;;8.77;2.83;;;;;;;18.31;100.00;98530.66;6073232;23;20034;-96
2022/11/11 02:21:54;;;;;;;12.85;2.85;;;;;;;18.39;100.00;98525.91;6073487;23;20010;-96
2022/11/11 02:24:23;;;;;;;8.60;2.90;;;;;;;19.04;100.00;98530.88;6073693;23;20065;-96
2022/11/11 02:27:15;;;;;;;9.40;2.72;;;;;;;18.56;100.00;98511.94;6073975;23;20073;-96
2022/11/11 02:29:42;;;;;;;10.80;3.15;;;;;;;19.21;100.00;98514.25;6074672;23;20014;-96
2022/11/11 02:32:08;;;;;;;11.07;3.35;;;;;;;19.59;100.00;98498.25;6100103;23;20018;-96
2022/11/11 02:34:34;;;;;;;8.90;3.67;;;;;;;18.78;100.00;98522.38;6074602;23;20010;-96
2022/11/11 02:37:02;;;;;;;9.60;3.20;;;;;;;18.87;100.00;98507.88;6073822;23;20324;-96
2022/11/11 02:39:28;;;;;;;11.13;3.20;;;;;;;18.87;100.00;98510.50;6074359;23;20006;-96
2022/11/11 02:41:56;;;;;;;7.65;2.92;;;;;;;18.56;100.00;98517.22;6076316;23;20019;-96
2022/11/11 02:44:26;;;;;;;10.55;2.58;;;;;;;18.92;100.00;98516.47;6073463;23;20002;-96
2022/11/11 02:46:52;;;;;;;10.02;2.80;;;;;;;18.94;100.00;98514.59;6098220;23;20070;-96
2022/11/11 02:49:27;;;;;;;9.50;2.60;;;;;;;18.54;100.00;98522.56;6099048;23;20010;-96
2022/11/11 02:51:54;;;;;;;8.93;2.40;;;;;;;18.51;100.00;98501.59;6106762;23;20022;-95
2022/11/11 02:54:19;;;;;;;8.82;2.30;;;;;;;18.51;100.00;98524.47;6077288;23;20452;-96
2022/11/11 02:59:29;;;;;;;10.70;2.40;;;;;;;18.66;100.00;98513.22;6097724;23;20041;-96
2022/11/11 03:04:26;;;;;;;9.40;1.98;;;;;;;19.01;100.00;98526.63;6110812;23;20034;-91
2022/11/11 03:06:51;;;;;;;8.13;2.10;;;;;;;19.03;100.00;98508.06;6116451;23;20017;-91
2022/11/11 03:09:16;;;;;;;9.65;2.40;;;;;;;18.89;100.00;98509.56;6132012;23;20009;-89
2022/11/11 03:11:42;;;;;;;8.75;2.33;;;;;;;18.66;100.00;98510.56;6141915;23;20029;-91
2022/11/11 03:14:07;;;;;;;8.07;2.42;;;;;;;18.66;100.00;98507.09;6122786;23;20397;-92
2022/11/11 03:19:18;;;;;;;9.85;2.45;;;;;;;18.46;100.00;98523.84;6129041;23;20061;-91
2022/11/11 03:21:43;;;;;;;6.95;2.47;;;;;;;18.20;100.00;98524.06;6141884;23;20010;-92
2022/11/11 03:24:09;;;;;;;9.50;2.58;;;;;;;18.88;100.00;98506.97;6133308;23;20014;-91
2022/11/11 03:26:34;;;;;;;10.05;2.33;;;;;;;18.36;100.00;98521.63;6121135;23;20085;-91
2022/11/11 03:29:00;;;;;;;12.27;2.60;;;;;;;18.19;100.00;98522.38;6119129;23;20102;-91
2022/11/11 03:31:25;;;;;;;8.27;2.78;;;;;;;18.33;100.00;98503.28;6117876;23;20010;-92
2022/11/11 03:33:51;;;;;;;7.43;2.38;;;;;;;18.51;100.00;98508.63;6118710;23;20014;-92
2022/11/11 03:36:16;;;;;;;10.15;2.50;;;;;;;18.34;100.00;98510.25;6119070;23;20017;-91
2022/11/11 03:38:42;;;;;;;12.05;2.40;;;;;;;18.36;100.00;98500.50;6118150;23;20009;-93
2022/11/11 03:41:08;;;;;;;7.13;2.25;;;;;;;18.16;100.00;98508.44;6118897;23;20010;-91
2022/11/11 03:43:34;;;;;;;9.68;2.13;;;;;;;18.31;100.00;98526.25;6116611;23;20026;-91
2022/11/11 03:46:03;;;;;;;6.95;2.42;;;;;;;18.50;100.00;98514.88;6118947;23;20021;-92
2022/11/11 03:48:32;;;;;;;8.15;1.92;;;;;;;18.33;100.00;98523.53;6118895;23;20022;-92
2022/11/11 03:50:57;;;;;;;10.38;1.75;;;;;;;18.32;100.00;98521.84;6117926;23;20014;-91
2022/11/11 03:53:23;;;;;;;10.90;2.00;;;;;;;18.34;100.00;98523.44;6115973;23;20691;-92
2022/11/11 03:55:49;;;;;;;9.02;2.00;;;;;;;18.28;100.00;98521.09;6116429;23;20030;-91
2022/11/11 03:58:15;;;;;;;10.32;2.10;;;;;;;18.32;100.00;98524.47;6116814;23;20013;-91
2022/11/11 04:00:41;;;;;;;8.32;1.98;;;;;;;18.00;100.00;98534.66;6117640;23;20447;-91
2022/11/11 04:11:29;;;;;;;12.38;2.38;;;;;;;18.60;100.00;98511.72;6119037;23;20021;-93
2022/11/11 04:16:44;;;;;;;10.02;2.22;;;;;;;18.55;100.00;98508.44;6118112;23;20033;-92
2022/11/11 04:21:53;;;;;;;10.50;2.10;;;;;;;18.88;100.00;98517.56;6117858;23;20081;-92
2022/11/11 04:27:06;;;;;;;9.50;2.33;;;;;;;17.92;100.00;98529.69;6119690;23;20077;-93
2022/11/11 04:29:32;;;;;;;10.43;2.35;;;;;;;18.47;100.00;98529.06;6117809;23;20085;-90
2022/11/11 04:34:49;;;;;;;10.40;2.28;;;;;;;18.28;100.00;98528.19;6120948;23;20098;-92
2022/11/11 04:37:18;;;;;;;7.43;2.22;;;;;;;18.13;100.00;98569.28;6118382;23;20022;-92
2022/11/11 04:42:29;;;;;;;8.68;1.88;;;;;;;18.11;100.00;98535.03;6120171;23;20961;-91
2022/11/11 04:48:00;;;;;;;9.20;2.38;;;;;;;18.63;100.00;98552.97;6120422;23;20049;-91
2022/11/11 04:50:37;;;;;;;9.02;2.25;;;;;;;18.47;100.00;98557.22;6119798;23;20002;-92
2022/11/11 04:53:05;;;;;;;9.13;1.98;;;;;;;18.12;100.00;98549.97;6119110;23;20010;-93
2022/11/11 04:58:17;;;;;;;10.15;2.47;;;;;;;18.31;100.00;98567.63;6120430;23;20077;-91
2022/11/11 05:00:42;;;;;;;6.72;2.00;;;;;;;18.13;100.00;98548.16;6118315;23;20109;-91
2022/11/11 05:03:15;;;;;;;10.15;2.17;;;;;;;18.58;100.00;98560.28;6118152;23;20683;-91
2022/11/11 05:08:55;;;;;;;7.38;1.88;;;;;;;18.18;100.00;98584.00;6119651;23;20052;-93
2022/11/11 05:11:30;;;;;;;7.65;1.77;;;;;;;18.84;100.00;98569.63;6119180;23;20020;-91
2022/11/11 05:22:31;;;;;;;7.43;1.80;;;;;;;18.80;100.00;98557.50;6132376;23;20550;-92
2022/11/11 05:27:41;;;;;;;7.95;2.03;;;;;;;18.02;100.00;98575.00;6136213;23;20045;-89
2022/11/11 05:30:09;;;;;;;6.80;1.90;;;;;;;18.01;100.00;98578.56;6134835;23;20005;-89
2022/11/11 05:32:34;;;;;;;9.60;1.90;;;;;;;18.08;100.00;98577.41;6133220;23;20009;-90
2022/11/11 05:34:59;;;;;;;6.57;1.70;;;;;;;17.82;100.00;98578.47;6133403;23;20017;-90
2022/11/11 05:37:26;;;;;;;8.25;1.90;;;;;;;17.79;100.00;98594.44;6137700;23;20041;-88
2022/11/11 05:39:52;;;;;;;8.13;1.70;;;;;;;18.00;100.00;98572.44;6136688;23;20002;-89
2022/11/11 05:42:18;;;;;;;8.23;1.77;;;;;;;18.10;100.00;98579.97;6136037;23;20017;-90
2022/11/11 05:44:43;;;;;;;5.32;1.48;;;;;;;17.87;100.00;98598.47;6134495;23;20042;-89
2022/11/11 05:47:09;;;;;;;8.70;1.90;;;;;;;18.15;100.00;98572.69;6125980;23;20022;-89
2022/11/11 05:49:34;;;;;;;8.15;1.83;;;;;;;18.15;100.00;98575.34;6129943;23;20006;-88
2022/11/11 05:52:00;;;;;;;8.95;1.85;;;;;;;17.79;100.00;98589.16;6133372;23;20026;-89
2022/11/11 05:54:25;;;;;;;8.88;1.83;;;;;;;17.74;100.00;98584.03;6137656;23;20162;-89
2022/11/11 05:56:54;;;;;;;6.75;1.42;;;;;;;18.01;100.00;98570.66;6136972;23;20069;-88
2022/11/11 05:59:19;;;;;;;6.93;2.13;;;;;;;17.85;100.00;98616.13;6135809;23;20108;-88
2022/11/11 06:01:47;;;;;;;7.72;2.00;;;;;;;18.21;100.00;98586.50;6127228;23;20049;-89
2022/11/11 06:04:12;;;;;;;9.05;1.73;;;;;;;18.23;100.00;98584.66;6136181;23;20038;-89
2022/11/11 06:06:38;;;;;;;10.60;1.95;;;;;;;18.12;100.00;98591.31;6135286;23;20325;-89
2022/11/11 06:09:04;;;;;;;7.32;1.90;;;;;;;18.40;100.00;98581.28;6134635;23;20018;-92
2022/11/11 06:11:30;;;;;;;7.13;1.88;;;;;;;17.97;100.00;98591.03;6138618;23;20033;-89
2022/11/11 06:13:55;;;;;;;9.52;1.90;;;;;;;18.41;100.00;98595.34;6136666;23;20010;-89
2022/11/11 06:16:23;;;;;;;6.97;1.40;;;;;;;18.08;100.00;98582.69;6132450;23;20010;-91
2022/11/11 06:18:50;;;;;;;6.63;1.77;;;;;;;18.27;100.00;98600.38;6126225;23;20100;-88
2022/11/11 06:21:15;;;;;;;6.20;1.60;;;;;;;17.87;100.00;98595.81;6134637;23;20006;-92
2022/11/11 06:23:46;;;;;;;6.60;1.50;;;;;;;18.03;100.00;98616.31;6122846;23;20048;-92
2022/11/11 06:26:12;;;;;;;6.82;1.52;;;;;;;17.89;100.00;98619.50;6123551;23;20466;-92
2022/11/11 06:28:56;;;;;;;8.60;1.67;;;;;;;17.82;100.00;98624.16;6123546;23;20008;-91
2022/11/11 06:31:26;;;;;;;7.18;1.67;;;;;;;17.84;100.00;98632.00;6120875;23;20037;-92
2022/11/11 06:33:52;;;;;;;6.20;1.42;;;;;;;17.97;100.00;98625.34;6127296;23;20030;-93
2022/11/11 06:36:19;;;;;;;7.85;1.60;;;;;;;18.53;100.00;98628.28;6124850;23;20014;-93
2022/11/11 06:38:46;;;;;;;8.48;1.65;;;;;;;18.21;100.00;98626.09;6127496;23;20006;-93
2022/11/11 06:41:12;;;;;;;6.60;1.65;;;;;;;18.19;100.00;98620.03;6123367;23;20010;-93
2022/11/11 06:43:42;;;;;;;6.70;1.88;;;;;;;18.28;100.00;98646.97;6121006;23;20059;-91
2022/11/11 06:46:21;;;;;;;7.28;1.83;;;;;;;18.01;100.00;98634.84;6120540;23;20080;-91
2022/11/11 06:48:47;;;;;;;4.65;1.30;;;;;;;17.93;100.00;98629.03;6117824;23;20010;-93
2022/11/11 06:51:13;;;;;;;8.75;1.90;;;;;;;18.05;100.00;98646.13;6118730;23;20406;-93
2022/11/11 06:53:39;;;;;;;9.02;2.20;;;;;;;18.29;100.00;98638.09;6119444;23;20013;-93
2022/11/11 06:56:06;;;;;;;9.48;1.92;;;;;;;18.20;100.00;98645.47;6119909;23;20020;-90
2022/11/11 06:58:32;;;;;;;6.85;1.98;;;;;;;18.23;100.00;98640.09;6121879;23;20002;-92
2022/11/11 07:00:57;;;;;;;7.97;1.75;;;;;;;18.42;100.00;98648.06;6118788;23;20018;-93
2022/11/11 07:03:23;;;;;;;6.82;1.65;;;;;;;18.23;100.00;98650.66;6118772;23;20380;-92
2022/11/11 07:05:48;;;;;;;5.95;1.45;;;;;;;18.38;100.00;98649.13;6118629;23;20033;-94
2022/11/11 07:08:16;;;;;;;6.88;1.63;;;;;;;17.90;100.00;98663.44;6119209;23;20073;-91
2022/11/11 07:10:47;;;;;;;6.78;1.45;;;;;;;17.99;100.00;98691.25;6119628;23;20093;-92
2022/11/11 07:13:15;;;;;;;6.93;1.50;;;;;;;17.81;100.00;98690.16;6118508;23;20021;-94
2022/11/11 07:15:42;;;;;;;7.32;1.63;;;;;;;18.44;100.00;98677.06;6116212;23;20013;-92
2022/11/11 07:18:07;;;;;;;9.73;2.00;;;;;;;18.47;100.00;98662.84;6112985;23;20025;-92
2022/11/11 07:20:33;;;;;;;5.97;1.60;;;;;;;18.49;100.00;98676.88;6114850;23;20009;-92
2022/11/11 07:22:58;;;;;;;10.90;2.17;;;;;;;18.38;100.00;98664.13;6114907;23;20010;-91
2022/11/11 07:25:24;;;;;;;7.72;1.75;;;;;;;18.66;100.00;98679.63;6118637;23;20351;-93
2022/11/11 07:27:49;;;;;;;6.82;1.85;;;;;;;18.37;100.00;98683.50;6113648;23;20802;-90
2022/11/11 07:30:15;;;;;;;10.25;1.90;;;;;;;18.23;100.00;98681.44;6114280;23;20018;-92
2022/11/11 07:32:48;;;;;;;7.82;2.15;;;;;;;18.82;100.00;98689.56;6113840;23;20105;-92
2022/11/11 07:35:15;;;;;;;8.90;2.22;;;;;;;18.16;100.00;98698.47;6117987;23;20008;-89
2022/11/11 07:37:41;;;;;;;10.63;2.35;;;;;;;18.21;100.00;98718.47;6137911;23;20009;-93
2022/11/11 07:40:07;;;;;;;8.82;2.30;;;;;;;18.29;100.00;98717.28;6135893;23;20018;-93
2022/11/11 07:42:38;;;;;;;12.15;2.30;;;;;;;18.00;100.00;98714.09;6121089;23;20470;-93
2022/11/11 07:45:05;;;;;;;9.60;2.20;;;;;;;17.83;100.00;98733.16;6120718;23;20009;-92
2022/11/11 07:47:30;;;;;;;10.65;2.20;;;;;;;18.17;100.00;98721.31;6133612;23;19998;-92
2022/11/11 07:49:56;;;;;;;7.47;1.90;;;;;;;18.42;100.00;98729.94;6142341;23;20444;-91
2022/11/11 07:52:22;;;;;;;8.93;2.28;;;;;;;18.15;100.00;98725.78;6119755;23;20117;-92
2022/11/11 07:54:50;;;;;;;8.15;2.10;;;;;;;18.20;100.00;98729.94;6120471;23;20020;-90
2022/11/11 07:57:15;;;;;;;9.27;2.15;;;;;;;18.19;100.00;98749.38;6120079;23;20021;-93
2022/11/11 07:59:41;;;;;;;11.40;1.90;;;;;;;18.43;100.00;98768.63;6118517;23;20061;-95
2022/11/11 08:02:11;;;;;;;9.45;1.92;;;;;;;18.38;100.00;98756.53;6115740;23;20020;-93
2022/11/11 08:04:36;;;;;;;10.07;1.92;;;;;;;18.40;100.00;98771.41;6119997;23;20016;-93
2022/11/11 08:07:02;;;;;;;6.18;1.55;;;;;;;18.64;100.00;98776.59;6119814;23;20053;-94
2022/11/11 08:09:27;;;;;;;7.25;1.50;;;;;;;18.57;100.00;98775.97;6121209;23;20014;-92
2022/11/11 08:14:40;;;;;;;8.63;1.70;;;;;;;19.17;100.00;98764.66;6119407;23;20344;-95
2022/11/11 08:17:05;;;;;;;5.97;1.45;;;;;;;19.88;100.00;98755.34;6118052;23;20034;-94
2022/11/11 08:19:31;;;;;;;6.55;1.30;;;;;;;18.90;100.00;98766.72;6115648;23;20428;-95
2022/11/11 08:21:56;;;;;;;9.05;2.00;;;;;;;19.17;100.00;98772.59;6118250;23;20447;-94
2022/11/11 08:24:22;;;;;;;8.27;1.65;;;;;;;19.24;100.00;98770.53;6119168;23;20636;-94
2022/11/11 08:26:49;;;;;;;6.07;1.48;;;;;;;19.14;100.00;98772.75;6117526;23;20048;-93
2022/11/11 08:29:14;;;;;;;5.60;1.60;;;;;;;19.32;100.00;98780.75;6119610;23;20039;-92
2022/11/11 08:31:40;;;;;;;6.82;1.50;;;;;;;19.31;100.00;98797.56;6120919;23;20620;-95
2022/11/11 08:34:05;;;;;;;6.93;1.60;;;;;;;18.81;100.00;98797.00;6118523;23;20017;-95
2022/11/11 08:36:33;;;;;;;8.15;1.58;;;;;;;18.81;100.00;98804.09;6120161;23;20524;-95
2022/11/11 08:38:58;;;;;;;5.07;1.33;;;;;;;18.76;100.00;98798.97;6120025;23;20124;-93
2022/11/11 08:41:24;;;;;;;8.00;1.70;;;;;;;18.70;100.00;98805.38;6120588;23;20037;-93
2022/11/11 08:43:54;;;;;;;6.72;1.42;;;;;;;19.20;100.00;98800.69;6119592;23;20064;-93
2022/11/11 08:46:21;;;;;;;7.07;1.55;;;;;;;18.86;100.00;98810.00;6119131;23;20022;-95
2022/11/11 08:48:46;;;;;;;7.22;1.73;;;;;;;18.87;100.00;98817.03;6117094;23;20014;-94
2022/11/11 08:51:12;;;;;;;8.50;1.73;;;;;;;18.76;100.00;98810.41;6121419;23;20020;-94
2022/11/11 08:53:37;;;;;;;9.63;1.70;;;;;;;18.81;100.00;98812.00;6119575;23;20017;-94
2022/11/11 08:56:03;;;;;;;6.53;1.55;;;;;;;18.51;100.00;98844.03;6121057;23;20010;-93
2022/11/11 08:58:29;;;;;;;7.55;1.50;;;;;;;18.84;100.00;98825.94;6120735;23;20018;-95
2022/11/11 09:00:55;;;;;;;7.15;1.52;;;;;;;18.95;100.00;98825.53;6121301;23;20105;-94
2022/11/11 09:03:20;;;;;;;7.50;1.60;;;;;;;18.66;100.00;98837.28;6119835;23;20400;-95
2022/11/11 09:05:46;;;;;;;7.15;1.55;;;;;;;19.03;100.00;98846.34;6120587;23;20060;-93
2022/11/11 09:08:12;;;;;;;7.13;1.50;;;;;;;18.84;100.00;98838.28;6120794;23;20451;-95
2022/11/11 09:10:37;;;;;;;15.15;1.80;;;;;;;18.83;100.00;98842.75;6120173;23;20089;-94
2022/11/11 09:13:04;;;;;;;7.70;1.63;;;;;;;18.85;100.00;98843.50;6120594;23;20010;-94
2022/11/11 09:15:30;;;;;;;6.80;1.45;;;;;;;19.04;100.00;98838.34;6121963;23;20088;-95
2022/11/11 09:17:56;;;;;;;6.88;1.60;;;;;;;18.71;100.00;98840.59;6120162;23;20427;-93
2022/11/11 09:20:23;;;;;;;7.50;1.38;;;;;;;18.85;100.00;98835.59;6122049;23;20022;-93
2022/11/11 09:22:49;;;;;;;5.30;1.33;;;;;;;19.00;100.00;98838.53;6123908;23;20037;-94
2022/11/11 09:25:15;;;;;;;7.68;1.58;;;;;;;19.16;100.00;98844.03;6122309;23;20017;-94
2022/11/11 09:27:41;;;;;;;7.22;1.60;;;;;;;19.10;100.00;98840.72;6123013;23;20013;-93
2022/11/11 09:30:09;;;;;;;8.55;1.40;;;;;;;18.92;100.00;98844.16;6122863;23;20025;-95
2022/11/11 09:32:35;;;;;;;11.15;1.77;;;;;;;19.30;100.00;98841.66;6121919;23;20005;-95
2022/11/11 09:35:01;;;;;;;7.50;1.70;;;;;;;18.87;100.00;98840.81;6120493;23;20010;-95
2022/11/11 09:37:27;;;;;;;6.18;1.35;;;;;;;18.79;100.00;98841.13;6123569;23;20041;-95
2022/11/11 09:39:55;;;;;;;7.05;1.50;;;;;;;18.87;100.00;98841.72;6121521;23;20618;-93
2022/11/11 09:42:53;;;;;;;6.32;1.70;;;;;;;18.38;100.00;98851.59;6121776;23;20017;-94
2022/11/11 09:45:27;;;;;;;9.82;1.85;;;;;;;19.17;100.00;98849.25;6073527;23;20014;-93
2022/11/11 09:48:07;;;;;;;5.80;1.20;;;;;;;18.97;100.00;98838.66;6113387;23;20025;-94
2022/11/11 09:50:37;;;;;;;7.63;1.50;;;;;;;19.13;100.00;98845.03;6130215;23;20033;-92
2022/11/11 09:53:21;;;;;;;7.60;1.50;;;;;;;18.90;100.00;98840.69;6146224;23;20024;-93
2022/11/11 09:56:02;;;;;;;8.77;1.67;;;;;;;18.99;100.00;98844.75;6126738;23;20029;-93
2022/11/11 09:58:48;;;;;;;6.20;1.80;;;;;;;19.02;100.00;98853.41;6126330;23;20020;-93
2022/11/11 10:01:17;;;;;;;8.40;1.50;;;;;;;19.75;100.00;98850.28;6128844;23;20018;-93
2022/11/11 10:03:59;;;;;;;7.40;1.40;;;;;;;19.08;100.00;98854.94;6150058;23;20104;-94
2022/11/11 10:06:32;;;;;;;9.40;1.50;;;;;;;19.18;100.00;98864.22;6138149;23;20009;-94
2022/11/11 10:09:06;;;;;;;7.22;1.60;;;;;;;18.69;100.00;98875.00;6126252;23;20105;-94
2022/11/11 10:12:01;;;;;;;8.15;1.70;;;;;;;18.60;100.00;98865.66;6126106;23;20002;-92
2022/11/11 10:14:33;;;;;;;7.28;1.42;;;;;;;19.12;100.00;98869.75;6124685;23;20384;-93
2022/11/11 10:17:22;;;;;;;9.40;1.40;;;;;;;19.09;100.00;98868.09;6123923;23;20498;-92
2022/11/11 10:20:14;;;;;;;6.28;1.33;;;;;;;19.21;100.00;98889.66;6119772;23;20024;-92
2022/11/11 10:22:45;;;;;;;4.95;1.23;;;;;;;19.25;100.00;98876.22;6118968;23;20014;-93
2022/11/11 10:25:13;;;;;;;9.20;1.60;;;;;;;19.13;100.00;98882.03;6124397;23;20111;-92
2022/11/11 10:27:43;;;;;;;4.93;1.25;;;;;;;19.47;100.00;98888.53;6121559;23;20010;-92
2022/11/11 10:30:25;;;;;;;7.45;1.38;;;;;;;19.11;100.00;98891.84;6118644;23;20085;-91
2022/11/11 10:33:11;;;;;;;4.90;1.30;;;;;;;19.21;100.00;98895.78;6117423;23;20068;-91
2022/11/11 10:35:40;;;;;;;6.03;1.67;;;;;;;19.28;100.00;98886.66;6116038;23;20043;-92
2022/11/11 10:38:08;;;;;;;9.52;1.85;;;;;;;19.89;100.00;98878.81;6116008;23;20013;-94
2022/11/11 10:40:45;;;;;;;7.35;1.58;;;;;;;19.64;100.00;98893.09;6116715;23;20108;-93
2022/11/11 10:43:27;;;;;;;8.50;1.60;;;;;;;19.39;100.00;98883.56;6120646;23;20339;-94
2022/11/11 10:45:59;;;;;;;6.30;1.30;;;;;;;19.37;100.00;98898.66;6118757;23;20022;-95
2022/11/11 10:48:37;;;;;;;7.38;1.58;;;;;;;19.76;100.00;98879.31;6117595;23;20017;-94
2022/11/11 10:51:04;;;;;;;8.40;1.30;;;;;;;19.56;100.00;98904.00;6119921;23;20006;-93
2022/11/11 10:54:06;;;;;;;6.07;1.30;;;;;;;19.64;100.00;98900.16;6119509;23;20002;-93
2022/11/11 10:56:37;;;;;;;4.90;1.30;;;;;;;19.43;100.00;98910.75;6119034;23;20553;-93
2022/11/11 10:59:14;;;;;;;7.03;1.63;;;;;;;19.76;100.00;98912.84;6121481;23;20053;-93
2022/11/11 11:02:09;;;;;;;7.63;1.40;;;;;;;19.83;100.00;98910.81;6119911;23;20005;-92
2022/11/11 11:04:44;;;;;;;5.75;1.35;;;;;;;19.70;100.00;98899.91;6029455;23;20023;-93
2022/11/11 11:07:16;;;;;;;8.13;1.30;;;;;;;19.09;100.00;98891.91;6030590;23;20074;-92
2022/11/11 11:10:08;;;;;;;6.60;1.50;;;;;;;19.74;100.00;98902.31;6033245;23;20007;-94
2022/11/11 11:12:51;;;;;;;5.70;1.38;;;;;;;19.87;100.00;98904.47;6008081;23;20106;-94
2022/11/11 11:15:21;;;;;;;6.00;1.33;;;;;;;19.65;100.00;98915.09;6033215;23;20007;-94
2022/11/11 11:18:10;;;;;;;7.75;1.65;;;;;;;19.34;100.00;98917.28;6032713;23;20034;-94
2022/11/11 11:20:36;;;;;;;9.80;1.70;;;;;;;19.38;100.00;98916.22;6031892;23;20825;-93
2022/11/11 11:23:01;;;;;;;6.40;2.13;;;;;;;19.74;100.00;98902.31;6030352;23;20019;-92
2022/11/11 11:25:32;;;;;;;6.45;1.77;;;;;;;19.30;100.00;98910.41;6031789;23;20015;-94
2022/11/11 11:28:08;;;;;;;6.53;1.40;;;;;;;19.34;100.00;98909.34;6029819;23;20035;-93
2022/11/11 11:30:34;;;;;;;8.45;1.40;;;;;;;19.60;100.00;98902.94;6008508;23;20015;-93
2022/11/11 11:33:02;;;;;;;8.85;1.65;;;;;;;19.53;100.00;98905.94;6032265;23;20050;-93
2022/11/11 11:35:35;;;;;;;9.85;1.60;;;;;;;19.37;100.00;98911.00;6031045;23;20014;-93
2022/11/11 11:38:01;;;;;;;6.82;1.70;;;;;;;19.57;100.00;98905.72;6031319;23;20030;-94
2022/11/11 11:40:47;;;;;;;11.05;1.70;;;;;;;20.03;100.00;98894.91;6039613;23;20011;-93
2022/11/11 11:43:30;;;;;;;9.57;1.90;;;;;;;19.62;100.00;98902.88;6119556;23;20022;-93
2022/11/11 11:46:00;;;;;;;8.00;1.92;;;;;;;19.39;100.00;98914.47;6119773;23;20013;-93
2022/11/11 11:48:32;;;;;;;8.57;1.80;;;;;;;19.23;100.00;98907.19;6118683;23;20302;-93
2022/11/11 11:51:24;;;;;;;7.93;1.70;;;;;;;19.92;100.00;98899.84;6121566;23;20017;-93
2022/11/11 11:54:11;;;;;;;7.70;1.70;;;;;;;19.83;100.00;98906.38;6063529;23;20024;-93
2022/11/11 11:56:58;;;;;;;8.05;1.70;;;;;;;19.54;100.00;98903.22;6118432;23;20040;-92
2022/11/11 11:59:41;;;;;;;6.00;1.60;;;;;;;19.16;100.00;98926.00;6119041;23;20053;-94
2022/11/11 12:02:20;;;;;;;8.18;2.00;;;;;;;19.23;100.00;98914.25;6116487;23;20026;-91
2022/11/11 12:05:08;;;;;;;6.05;1.60;;;;;;;19.68;100.00;98910.56;6134175;23;20076;-92
2022/11/11 12:08:01;;;;;;;7.47;1.67;;;;;;;19.66;100.00;98912.38;6133796;23;20005;-94
2022/11/11 12:10:36;;;;;;;8.90;2.03;;;;;;;20.39;100.00;98882.66;6120751;23;20017;-94
2022/11/11 12:13:32;;;;;;;9.23;1.80;;;;;;;19.74;100.00;98902.31;6119312;23;20149;-95
2022/11/11 12:16:10;;;;;;;9.10;1.50;;;;;;;19.92;100.00;98894.53;6140217;23;20077;-95
2022/11/11 12:18:44;;;;;;;6.25;1.40;;;;;;;20.12;100.00;98898.91;6134515;23;20447;-93
2022/11/11 12:21:12;;;;;;;8.48;1.60;;;;;;;20.07;100.00;98890.31;6121937;23;20009;-93
2022/11/11 12:23:56;;;;;;;6.28;1.48;;;;;;;19.98;100.00;98888.94;6120046;23;20006;-92
2022/11/11 12:26:26;;;;;;;;;;;;;;;19.87;100.00;98893.88;6119653;23;20017;-93
2022/11/11 12:28:59;;;;;;;6.43;1.25;;;;;;;19.36;100.00;98912.81;6119452;23;19913;-92
2022/11/11 12:31:29;;;;;;;6.63;1.67;;;;;;;20.17;100.00;98885.47;6117964;23;20010;-94
2022/11/11 12:34:17;;;;;;;7.38;1.55;;;;;;;20.06;100.00;98891.25;6119865;23;20109;-94
2022/11/11 12:36:48;;;;;;;5.82;1.50;;;;;;;19.84;100.00;98891.38;6114380;23;20084;-93
2022/11/11 12:39:51;;;;;;;6.10;1.60;;;;;;;19.49;100.00;98893.75;6116098;23;20017;-94
2022/11/11 12:42:43;;;;;;;6.00;1.33;;;;;;;19.69;100.00;98885.78;6117533;23;20101;-95
2022/11/11 12:45:18;;;;;;;5.25;1.30;;;;;;;19.63;100.00;98885.22;6122018;23;20029;-94
2022/11/11 12:48:13;;;;;;;7.53;1.48;;;;;;;20.02;100.00;98882.59;6122609;23;20439;-93
2022/11/11 12:50:47;;;;;;;6.07;1.30;;;;;;;19.51;100.00;98868.09;6121556;23;20406;-92